createdAt,value
2019-03-18T00:01:58.243Z,3.60
2019-03-18T00:04:26.822Z,3.43
2019-03-18T00:06:55.535Z,3.47
2019-03-18T00:09:24.254Z,3.43
2019-03-18T00:11:52.890Z,3.37
2019-03-18T00:14:21.615Z,3.70
2019-03-18T00:16:54.693Z,3.50
2019-03-18T00:19:23.399Z,3.67
2019-03-18T00:21:52.051Z,3.47
2019-03-18T00:24:20.655Z,3.60
2019-03-18T00:26:49.302Z,3.90
2019-03-18T00:29:17.907Z,3.60
2019-03-18T00:31:46.617Z,3.30
2019-03-18T00:34:15.267Z,3.70
2019-03-18T00:36:43.932Z,3.83
2019-03-18T00:39:12.588Z,4.03
2019-03-18T00:41:41.251Z,3.90
2019-03-18T00:44:09.855Z,3.57
2019-03-18T00:46:38.520Z,3.60
2019-03-18T00:49:07.123Z,3.37
2019-03-18T00:51:35.783Z,3.90
2019-03-18T00:54:04.460Z,3.63
2019-03-18T00:56:33.134Z,3.67
2019-03-18T00:59:01.748Z,4.00
2019-03-18T01:01:30.493Z,4.00
2019-03-18T01:03:59.092Z,3.93
2019-03-18T01:06:27.756Z,3.90
2019-03-18T01:08:56.434Z,4.33
2019-03-18T01:11:25.167Z,3.67
2019-03-18T01:13:53.904Z,4.10
2019-03-18T01:16:22.510Z,3.93
2019-03-18T01:18:51.246Z,4.13
2019-03-18T01:21:19.857Z,4.33
2019-03-18T01:23:48.529Z,4.23
2019-03-18T01:26:17.139Z,4.10
2019-03-18T01:28:45.749Z,4.43
2019-03-18T01:31:14.398Z,4.10
2019-03-18T01:33:43.084Z,4.67
2019-03-18T01:36:11.744Z,4.60
2019-03-18T01:38:40.499Z,4.80
2019-03-18T01:41:09.284Z,4.50
2019-03-18T01:43:37.895Z,4.67
2019-03-18T01:46:06.554Z,5.07
2019-03-18T01:48:35.201Z,4.60
2019-03-18T01:51:03.928Z,4.37
2019-03-18T01:53:32.588Z,4.47
2019-03-18T01:56:01.261Z,4.57
2019-03-18T01:58:29.918Z,4.07
2019-03-18T02:00:58.577Z,4.13
2019-03-18T02:03:27.189Z,4.10
2019-03-18T02:05:55.862Z,4.37
2019-03-18T02:08:24.471Z,4.10
2019-03-18T02:10:53.198Z,4.53
2019-03-18T02:13:21.800Z,4.13
2019-03-18T02:15:53.561Z,4.57
2019-03-18T02:18:20.804Z,4.23
2019-03-18T02:20:49.419Z,4.23
2019-03-18T02:23:18.071Z,4.80
2019-03-18T02:25:46.741Z,4.30
2019-03-18T02:28:15.386Z,4.40
2019-03-18T02:30:46.916Z,4.40
2019-03-18T02:33:15.583Z,4.60
2019-03-18T02:35:44.239Z,5.07
2019-03-18T02:38:12.899Z,4.77
2019-03-18T02:40:41.519Z,4.97
2019-03-18T02:43:10.181Z,5.23
2019-03-18T02:45:38.784Z,5.13
2019-03-18T02:48:07.464Z,5.73
2019-03-18T02:50:36.066Z,5.70
2019-03-18T02:53:04.803Z,5.67
2019-03-18T02:55:33.405Z,5.80
2019-03-18T02:58:02.025Z,5.90
2019-03-18T03:00:30.677Z,5.67
2019-03-18T03:02:59.407Z,6.03
2019-03-18T03:05:28.017Z,4.87
2019-03-18T03:07:56.667Z,5.17
2019-03-18T03:10:25.319Z,5.70
2019-03-18T03:12:53.912Z,6.13
2019-03-18T03:15:22.577Z,7.00
2019-03-18T03:17:51.320Z,6.73
2019-03-18T03:20:19.915Z,7.23
2019-03-18T03:22:48.579Z,6.60
2019-03-18T03:25:17.309Z,6.77
2019-03-18T03:27:45.984Z,6.70
2019-03-18T03:30:15.525Z,7.00
2019-03-18T03:32:44.440Z,8.17
2019-03-18T03:35:13.514Z,7.37
2019-03-18T03:37:42.167Z,7.57
2019-03-18T03:40:13.001Z,8.40
2019-03-18T03:42:41.818Z,8.50
2019-03-18T03:45:12.875Z,9.73
2019-03-18T03:47:41.661Z,10.23
2019-03-18T03:50:11.821Z,10.50
2019-03-18T03:52:47.798Z,11.10
2019-03-18T03:55:16.543Z,10.37
2019-03-18T03:57:45.306Z,11.77
2019-03-18T04:00:15.565Z,10.67
2019-03-18T04:02:44.256Z,10.70
2019-03-18T04:05:12.998Z,11.00
2019-03-18T04:07:41.750Z,11.00
2019-03-18T04:10:11.988Z,10.83
2019-03-18T04:12:40.625Z,11.23
2019-03-18T04:15:11.445Z,11.20
2019-03-18T04:17:40.143Z,11.20
2019-03-18T04:20:16.663Z,11.03
2019-03-18T04:22:45.536Z,12.03
2019-03-18T04:25:14.183Z,11.00
2019-03-18T04:27:42.859Z,11.67
2019-03-18T04:30:13.107Z,11.93
2019-03-18T04:32:41.852Z,12.33
2019-03-18T04:35:10.602Z,12.07
2019-03-18T04:37:39.259Z,12.90
2019-03-18T04:40:10.473Z,13.17
2019-03-18T04:42:39.078Z,13.00
2019-03-18T04:45:09.271Z,13.73
2019-03-18T04:47:37.883Z,14.03
2019-03-18T04:50:08.601Z,13.67
2019-03-18T04:52:37.276Z,13.40
2019-03-18T04:55:07.295Z,14.13
2019-03-18T04:57:35.972Z,14.10
2019-03-18T05:00:07.742Z,13.40
2019-03-18T05:02:36.358Z,14.37
2019-03-18T05:05:05.555Z,14.20
2019-03-18T05:07:34.286Z,13.17
2019-03-18T05:10:03.077Z,14.40
2019-03-18T05:12:31.807Z,14.63
2019-03-18T05:15:00.516Z,15.23
2019-03-18T05:17:29.227Z,15.67
2019-03-18T05:19:57.855Z,15.50
2019-03-18T05:22:26.521Z,15.97
2019-03-18T05:24:55.201Z,14.87
2019-03-18T05:27:23.874Z,16.40
2019-03-18T05:29:52.634Z,16.03
2019-03-18T05:32:21.251Z,16.37
2019-03-18T05:34:49.956Z,16.80
2019-03-18T05:37:18.563Z,16.03
2019-03-18T05:39:47.168Z,16.53
2019-03-18T05:42:15.836Z,16.70
2019-03-18T05:44:44.444Z,16.83
2019-03-18T05:47:13.112Z,17.40
2019-03-18T05:49:41.724Z,17.73
2019-03-18T05:52:10.378Z,18.83
2019-03-18T05:54:39.050Z,17.80
2019-03-18T05:57:07.720Z,16.93
2019-03-18T05:59:36.327Z,15.30
2019-03-18T06:02:04.988Z,11.17
2019-03-18T06:04:33.659Z,13.53
2019-03-18T06:07:02.439Z,15.00
2019-03-18T06:09:31.131Z,15.57
2019-03-18T06:12:01.388Z,15.90
2019-03-18T06:14:30.120Z,16.87
2019-03-18T06:16:58.782Z,19.03
2019-03-18T06:19:27.407Z,20.03
2019-03-18T06:21:56.069Z,21.23
2019-03-18T06:24:24.691Z,20.07
2019-03-18T06:26:53.350Z,19.47
2019-03-18T06:29:22.067Z,17.93
2019-03-18T06:31:50.752Z,16.73
2019-03-18T06:34:19.363Z,15.87
2019-03-18T06:36:48.035Z,16.40
2019-03-18T06:39:16.669Z,14.90
2019-03-18T06:41:45.329Z,16.63
2019-03-18T06:44:13.963Z,15.37
2019-03-18T06:46:42.577Z,14.73
2019-03-18T06:49:11.326Z,14.77
2019-03-18T06:51:40.044Z,15.03
2019-03-18T06:54:08.732Z,14.57
2019-03-18T06:56:37.469Z,13.93
2019-03-18T06:59:06.145Z,12.87
2019-03-18T07:01:34.871Z,13.37
2019-03-18T07:04:03.659Z,12.40
2019-03-18T07:06:32.524Z,11.00
2019-03-18T07:09:01.204Z,11.03
2019-03-18T07:11:29.876Z,10.90
2019-03-18T07:13:58.566Z,10.47
2019-03-18T07:16:27.224Z,9.73
2019-03-18T07:18:55.953Z,9.53
2019-03-18T07:21:24.757Z,9.17
2019-03-18T07:23:53.687Z,8.40
2019-03-18T07:26:22.294Z,7.77
2019-03-18T07:28:50.957Z,8.30
2019-03-18T07:31:19.591Z,7.77
2019-03-18T07:33:48.315Z,7.43
2019-03-18T07:36:16.931Z,8.23
2019-03-18T07:38:45.738Z,7.77
2019-03-18T07:41:14.428Z,7.63
2019-03-18T07:57:38.893Z,7.47
2019-03-18T08:00:13.415Z,7.83
2019-03-18T08:02:42.104Z,7.60
2019-03-18T08:05:10.953Z,7.77
2019-03-18T08:07:39.669Z,7.73
2019-03-18T08:10:13.032Z,7.60
2019-03-18T08:12:41.700Z,6.67
2019-03-18T08:15:11.634Z,6.60
2019-03-18T08:17:40.391Z,6.23
2019-03-18T08:20:10.895Z,5.63
2019-03-18T08:22:39.581Z,5.70
2019-03-18T08:25:09.569Z,5.80
2019-03-18T08:27:38.222Z,5.30
2019-03-18T08:30:12.917Z,5.30
2019-03-18T08:32:41.634Z,5.17
2019-03-18T08:35:10.333Z,5.00
2019-03-18T08:37:39.022Z,4.97
2019-03-18T08:40:09.928Z,4.20
2019-03-18T08:42:38.577Z,5.33
2019-03-18T08:45:16.214Z,4.73
2019-03-18T08:47:44.912Z,4.40
2019-03-18T08:50:13.787Z,4.00
2019-03-18T08:52:42.592Z,4.60
2019-03-18T08:55:11.837Z,3.70
2019-03-18T08:57:40.526Z,3.53
2019-03-18T09:00:14.194Z,4.30
2019-03-18T09:02:42.880Z,3.60
2019-03-18T09:05:11.664Z,3.50
2019-03-18T09:07:40.425Z,3.50
2019-03-18T09:10:14.288Z,4.10
2019-03-18T09:12:43.052Z,3.23
2019-03-18T09:15:12.581Z,3.07
2019-03-18T09:17:41.376Z,3.10
2019-03-18T09:20:12.740Z,3.97
2019-03-18T09:22:41.560Z,2.93
2019-03-18T09:25:11.301Z,3.23
2019-03-18T09:27:39.941Z,3.03
2019-03-18T09:30:19.231Z,3.03
2019-03-18T09:32:47.939Z,2.90
2019-03-18T09:35:16.693Z,3.07
2019-03-18T09:37:45.451Z,3.40
2019-03-18T09:40:15.880Z,3.40
2019-03-18T09:42:44.678Z,3.17
2019-03-18T09:45:19.454Z,3.17
2019-03-18T09:47:48.274Z,2.93
2019-03-18T09:50:17.166Z,3.30
2019-03-18T09:52:45.857Z,3.10
2019-03-18T09:55:14.645Z,3.00
2019-03-18T09:57:43.371Z,3.40
2019-03-18T10:00:16.652Z,3.23
2019-03-18T10:02:45.461Z,3.60
2019-03-18T10:05:14.431Z,2.80
2019-03-18T10:07:46.083Z,3.03
2019-03-18T10:10:15.425Z,2.33
2019-03-18T10:12:44.297Z,3.07
2019-03-18T10:15:18.268Z,2.63
2019-03-18T10:17:47.094Z,2.70
2019-03-18T10:20:15.937Z,2.60
2019-03-18T10:22:44.970Z,2.53
2019-03-18T10:25:13.691Z,3.27
2019-03-18T10:27:42.420Z,2.93
2019-03-18T10:30:13.016Z,2.90
2019-03-18T10:32:41.840Z,3.07
2019-03-18T10:35:10.737Z,3.03
2019-03-18T10:37:39.490Z,3.00
2019-03-18T10:40:11.329Z,2.70
2019-03-18T10:42:40.189Z,3.37
2019-03-18T10:45:11.117Z,2.70
2019-03-18T10:47:39.962Z,2.93
2019-03-18T10:50:16.469Z,2.63
2019-03-18T10:52:45.168Z,2.80
2019-03-18T10:55:14.043Z,3.13
2019-03-18T10:57:42.912Z,2.50
2019-03-18T11:00:16.081Z,2.87
2019-03-18T11:02:45.485Z,3.07
2019-03-18T11:05:15.017Z,2.80
2019-03-18T11:07:44.071Z,2.67
2019-03-18T11:10:14.921Z,3.10
2019-03-18T11:12:43.675Z,2.80
2019-03-18T11:15:20.008Z,3.20
2019-03-18T11:17:48.828Z,2.97
2019-03-18T11:20:17.868Z,3.00
2019-03-18T11:22:46.671Z,2.90
2019-03-18T11:25:16.357Z,3.00
2019-03-18T11:27:45.161Z,2.63
2019-03-18T11:30:16.109Z,2.73
2019-03-18T11:32:44.890Z,2.73
2019-03-18T11:35:13.697Z,3.17
2019-03-18T11:37:42.504Z,2.63
2019-03-18T11:40:20.196Z,3.33
2019-03-18T11:42:49.537Z,2.90
2019-03-18T11:45:19.206Z,2.97
2019-03-18T11:47:48.174Z,2.60
2019-03-18T11:50:17.981Z,3.07
2019-03-18T11:52:46.693Z,2.93
2019-03-18T11:55:23.167Z,2.60
2019-03-18T11:57:51.988Z,2.73
2019-03-18T12:00:25.013Z,2.30
2019-03-18T12:02:53.975Z,2.50
2019-03-18T12:05:27.819Z,2.27
2019-03-18T12:07:56.613Z,2.73
2019-03-18T12:10:26.167Z,2.47
2019-03-18T12:12:55.111Z,2.63
2019-03-18T12:15:26.133Z,2.83
2019-03-18T12:17:55.063Z,2.43
2019-03-18T12:20:25.462Z,2.30
2019-03-18T12:22:54.230Z,2.90
2019-03-18T12:25:23.008Z,2.27
2019-03-18T12:27:51.735Z,2.47
2019-03-18T12:30:24.143Z,2.40
2019-03-18T12:32:52.881Z,2.27
2019-03-18T12:35:21.662Z,2.23
2019-03-18T12:37:50.537Z,2.50
2019-03-18T12:40:19.344Z,2.27
2019-03-18T12:42:48.115Z,2.37
2019-03-18T12:45:21.615Z,2.83
2019-03-18T12:47:50.454Z,2.20
2019-03-18T12:50:36.894Z,2.63
2019-03-18T12:52:52.852Z,2.63
2019-03-18T12:55:21.619Z,2.57
2019-03-18T12:57:50.426Z,2.43
2019-03-18T13:00:27.763Z,2.33
2019-03-18T13:02:56.717Z,2.90
2019-03-18T13:05:25.491Z,2.03
2019-03-18T13:07:54.313Z,2.27
2019-03-18T13:10:23.109Z,2.97
2019-03-18T13:12:51.887Z,2.80
2019-03-18T13:15:23.378Z,2.77
2019-03-18T13:17:52.022Z,2.83
2019-03-18T13:20:22.798Z,2.67
2019-03-18T13:22:53.856Z,2.37
2019-03-18T13:25:21.891Z,3.03
2019-03-18T13:27:50.603Z,2.43
2019-03-18T13:30:25.947Z,2.17
2019-03-18T13:32:54.610Z,2.20
2019-03-18T13:35:23.395Z,2.87
2019-03-18T13:37:52.056Z,2.60
2019-03-18T13:40:20.897Z,2.40
2019-03-18T13:42:49.597Z,2.17
2019-03-18T13:45:23.030Z,2.40
2019-03-18T13:47:51.765Z,2.23
2019-03-18T13:50:22.271Z,2.20
2019-03-18T13:52:51.104Z,2.43
2019-03-18T13:55:19.781Z,2.47
2019-03-18T13:57:48.557Z,2.00
2019-03-18T14:00:18.676Z,2.20
2019-03-18T14:02:47.391Z,2.40
2019-03-18T14:05:16.207Z,1.60
2019-03-18T14:07:44.985Z,2.20
2019-03-18T14:10:16.605Z,2.43
2019-03-18T14:12:45.404Z,2.40
2019-03-18T14:15:25.050Z,2.50
2019-03-18T14:17:53.895Z,2.27
2019-03-18T14:20:25.614Z,2.20
2019-03-18T14:22:54.346Z,2.17
2019-03-18T14:25:23.166Z,2.10
2019-03-18T14:27:51.963Z,2.80
2019-03-18T14:30:21.804Z,2.40
2019-03-18T14:32:50.484Z,2.20
2019-03-18T14:35:21.514Z,2.00
2019-03-18T14:37:49.648Z,2.20
2019-03-18T14:40:24.874Z,1.83
2019-03-18T14:42:53.710Z,1.83
2019-03-18T14:45:23.443Z,2.10
2019-03-18T14:47:52.314Z,2.17
2019-03-18T14:50:22.389Z,2.00
2019-03-18T14:52:51.136Z,2.13
2019-03-18T14:55:19.916Z,1.97
2019-03-18T14:57:48.712Z,1.60
2019-03-18T15:00:21.987Z,1.70
2019-03-18T15:02:50.816Z,1.97
2019-03-18T15:05:19.718Z,2.00
2019-03-18T15:07:48.405Z,1.80
2019-03-18T15:10:27.927Z,2.30
2019-03-18T15:12:56.574Z,1.90
2019-03-18T15:15:25.337Z,2.00
2019-03-18T15:17:53.940Z,2.50
2019-03-18T15:20:23.946Z,2.30
2019-03-18T15:22:52.658Z,2.40
2019-03-18T15:25:24.145Z,2.00
2019-03-18T15:27:52.823Z,2.33
2019-03-18T15:30:21.745Z,2.47
2019-03-18T15:32:50.443Z,2.43
2019-03-18T15:35:19.214Z,2.43
2019-03-18T15:37:48.045Z,2.30
2019-03-18T15:40:25.979Z,2.60
2019-03-18T15:42:54.737Z,2.67
2019-03-18T15:45:23.729Z,2.57
2019-03-18T15:47:52.481Z,3.10
2019-03-18T15:50:22.202Z,2.60
2019-03-18T15:52:50.857Z,3.17
2019-03-18T15:55:19.692Z,2.77
2019-03-18T15:57:48.401Z,2.57
2019-03-18T16:00:21.460Z,3.00
2019-03-18T16:02:50.215Z,3.60
2019-03-18T16:05:19.115Z,2.77
2019-03-18T16:07:47.735Z,2.43
2019-03-18T16:10:19.924Z,2.73
2019-03-18T16:12:48.713Z,2.70
2019-03-18T16:15:18.193Z,2.43
2019-03-18T16:17:47.029Z,2.70
2019-03-18T16:20:20.591Z,2.97
2019-03-18T16:22:49.298Z,2.70
2019-03-18T16:25:17.934Z,2.13
2019-03-18T16:27:46.570Z,1.80
2019-03-18T16:30:17.463Z,2.07
2019-03-18T16:32:46.234Z,1.77
2019-03-18T16:35:16.518Z,2.30
2019-03-18T16:37:45.412Z,1.70
2019-03-18T16:40:16.401Z,2.20
2019-03-18T16:42:45.055Z,2.10
2019-03-18T16:45:18.385Z,2.57
2019-03-18T16:47:47.102Z,2.00
2019-03-18T16:50:24.655Z,2.90
2019-03-18T16:52:53.297Z,1.70
2019-03-18T16:55:22.074Z,2.10
2019-03-18T16:57:50.732Z,2.27
2019-03-18T17:00:26.906Z,2.13
2019-03-18T17:02:55.667Z,2.07
2019-03-18T17:05:24.396Z,2.53
2019-03-18T17:07:54.337Z,2.30
2019-03-18T17:10:23.414Z,2.17
2019-03-18T17:12:52.055Z,1.73
2019-03-18T17:15:21.685Z,2.20
2019-03-18T17:17:50.449Z,2.60
2019-03-18T17:20:19.120Z,2.10
2019-03-18T17:22:49.728Z,2.17
2019-03-18T17:25:34.493Z,2.23
2019-03-18T17:28:03.233Z,1.97
2019-03-18T17:30:31.878Z,1.70
2019-03-18T17:33:01.318Z,2.20
2019-03-18T17:35:29.979Z,2.47
2019-03-18T17:37:58.689Z,2.20
2019-03-18T17:40:27.298Z,2.20
2019-03-18T17:42:55.901Z,2.23
2019-03-18T17:45:24.548Z,2.03
2019-03-18T17:47:53.194Z,2.30
2019-03-18T17:50:31.522Z,2.50
2019-03-18T17:53:03.424Z,1.87
2019-03-18T17:55:30.544Z,2.13
2019-03-18T17:57:59.175Z,2.30
2019-03-18T18:00:32.292Z,2.03
2019-03-18T18:02:59.830Z,2.30
2019-03-18T18:05:28.481Z,2.30
2019-03-18T18:07:57.180Z,2.50
2019-03-18T18:10:25.872Z,2.57
2019-03-18T18:12:54.595Z,2.30
2019-03-18T18:15:23.232Z,2.20
2019-03-18T18:18:03.796Z,2.00
2019-03-18T18:20:32.501Z,1.97
2019-03-18T18:23:13.290Z,2.10
2019-03-18T18:25:31.456Z,1.80
2019-03-18T18:28:00.120Z,2.10
2019-03-18T18:30:28.770Z,1.60
2019-03-18T18:32:57.445Z,1.63
2019-03-18T18:35:26.220Z,2.10
2019-03-18T18:37:54.878Z,2.40
2019-03-18T18:40:28.744Z,2.23
2019-03-18T18:42:57.500Z,2.30
2019-03-18T18:45:26.194Z,2.23
2019-03-18T18:47:54.795Z,2.27
2019-03-18T18:50:23.796Z,2.97
2019-03-18T18:52:52.550Z,2.10
2019-03-18T18:55:21.177Z,2.30
2019-03-18T18:57:49.979Z,2.27
2019-03-18T19:00:22.474Z,1.90
2019-03-18T19:02:51.305Z,2.33
2019-03-18T19:05:20.126Z,2.17
2019-03-18T19:07:48.965Z,2.00
2019-03-18T19:10:21.504Z,2.00
2019-03-18T19:12:50.232Z,1.73
2019-03-18T19:15:26.558Z,2.13
2019-03-18T19:17:55.246Z,2.00
2019-03-18T19:20:23.981Z,2.33
2019-03-18T19:22:52.736Z,1.70
2019-03-18T19:25:21.448Z,2.70
2019-03-18T19:27:50.195Z,1.90
2019-03-18T19:30:22.559Z,2.00
2019-03-18T19:32:51.395Z,2.10
2019-03-18T19:35:20.132Z,1.90
2019-03-18T19:37:48.899Z,2.63
2019-03-18T19:40:21.474Z,1.90
2019-03-18T19:42:50.272Z,2.23
2019-03-18T19:45:19.083Z,2.03
2019-03-18T19:47:47.810Z,2.30
2019-03-18T19:50:21.109Z,2.33
2019-03-18T19:52:49.789Z,2.00
2019-03-18T19:55:18.560Z,2.03
2019-03-18T19:57:47.547Z,2.00
2019-03-18T20:00:29.744Z,2.20
2019-03-18T20:02:58.604Z,1.93
2019-03-18T20:05:27.529Z,1.80
2019-03-18T20:07:57.926Z,2.50
2019-03-18T20:10:26.725Z,2.73
2019-03-18T20:12:55.323Z,2.10
2019-03-18T20:15:24.284Z,2.63
2019-03-18T20:17:53.020Z,2.20
2019-03-18T20:20:23.205Z,2.50
2019-03-18T20:22:51.994Z,2.53
2019-03-18T20:25:20.659Z,2.60
2019-03-18T20:27:49.404Z,2.20
2019-03-18T20:30:22.606Z,2.50
2019-03-18T20:32:51.394Z,2.23
2019-03-18T20:35:21.239Z,2.60
2019-03-18T20:37:51.869Z,3.20
2019-03-18T20:40:21.079Z,3.03
2019-03-18T20:42:50.006Z,2.50
2019-03-18T20:45:27.634Z,2.30
2019-03-18T20:47:56.497Z,2.37
2019-03-18T20:50:25.374Z,2.07
2019-03-18T20:52:54.410Z,2.10
2019-03-18T20:55:23.348Z,2.03
2019-03-18T20:57:52.232Z,1.63
2019-03-18T21:00:25.003Z,2.17
2019-03-18T21:02:54.033Z,1.80
2019-03-18T21:05:25.226Z,1.90
2019-03-18T21:07:53.614Z,2.50
2019-03-18T21:10:23.051Z,1.93
2019-03-18T21:12:52.129Z,2.43
2019-03-18T21:15:20.821Z,2.07
2019-03-18T21:17:49.928Z,1.90
2019-03-18T21:20:27.391Z,2.00
2019-03-18T21:22:56.120Z,2.00
2019-03-18T21:25:24.898Z,2.07
2019-03-18T21:27:53.815Z,1.80
2019-03-18T21:30:25.258Z,1.60
2019-03-18T21:32:53.951Z,2.10
2019-03-18T21:35:22.802Z,1.90
2019-03-18T21:37:51.550Z,1.57
2019-03-18T21:40:21.580Z,2.10
2019-03-18T21:42:50.377Z,1.77
2019-03-18T21:45:24.026Z,1.90
2019-03-18T21:47:52.967Z,2.43
2019-03-18T21:50:21.759Z,2.07
2019-03-18T21:52:50.443Z,2.00
2019-03-18T21:55:19.175Z,2.27
2019-03-18T21:57:48.028Z,2.10
2019-03-18T22:00:18.465Z,2.20
2019-03-18T22:02:47.249Z,2.07
2019-03-18T22:05:16.045Z,2.23
2019-03-18T22:07:44.861Z,2.90
2019-03-18T22:10:14.788Z,2.40
2019-03-18T22:12:43.508Z,1.90
2019-03-18T22:15:24.619Z,2.00
2019-03-18T22:17:53.488Z,2.17
2019-03-18T22:20:23.020Z,1.70
2019-03-18T22:22:52.259Z,2.37
2019-03-18T22:25:20.985Z,2.30
2019-03-18T22:27:49.678Z,2.20
2019-03-18T22:30:18.964Z,2.60
2019-03-18T22:32:48.395Z,2.00
2019-03-18T22:35:17.081Z,2.40
2019-03-18T22:37:45.990Z,2.23
2019-03-18T22:40:15.873Z,2.30
2019-03-18T22:42:44.589Z,2.03
2019-03-18T22:45:14.369Z,1.80
2019-03-18T22:47:43.246Z,1.60
2019-03-18T22:50:13.636Z,2.00
2019-03-18T22:52:42.302Z,1.83
2019-03-18T22:55:13.012Z,2.57
2019-03-18T22:57:41.812Z,2.40
2019-03-18T23:00:27.232Z,2.83
2019-03-18T23:02:56.004Z,2.03
2019-03-18T23:05:24.746Z,2.13
2019-03-18T23:07:53.467Z,2.37
2019-03-18T23:10:22.110Z,2.47
2019-03-18T23:12:50.826Z,2.43
2019-03-18T23:15:19.553Z,2.67
2019-03-18T23:17:48.229Z,2.43
2019-03-18T23:20:16.963Z,2.47
2019-03-18T23:22:45.579Z,2.60
2019-03-18T23:25:14.380Z,2.40
2019-03-18T23:27:43.072Z,2.03
2019-03-18T23:30:15.620Z,3.13
2019-03-18T23:32:44.257Z,2.73
2019-03-18T23:35:13.093Z,2.67
2019-03-18T23:37:41.870Z,2.40
2019-03-18T23:40:14.407Z,2.53
2019-03-18T23:42:43.159Z,2.30
2019-03-18T23:45:12.669Z,2.83
2019-03-18T23:47:41.277Z,2.30
2019-03-18T23:50:12.238Z,2.60
2019-03-18T23:52:41.069Z,3.40
2019-03-18T23:55:18.809Z,2.47
2019-03-18T23:57:40.624Z,2.63
